createdAt,value
2023-04-04T00:01:44.313Z,0.46
2023-04-04T00:06:47.791Z,0.39
2023-04-04T00:11:49.858Z,0.35
2023-04-04T00:16:51.615Z,0.33
2023-04-04T00:21:53.147Z,0.29
2023-04-04T00:26:55.471Z,0.25
2023-04-04T00:31:58.122Z,0.19
2023-04-04T00:36:59.895Z,0.10
2023-04-04T00:42:02.049Z,0.03
2023-04-04T00:47:04.667Z,-0.06
2023-04-04T00:52:07.820Z,-0.14
2023-04-04T00:57:09.674Z,-0.24
2023-04-04T01:02:11.515Z,-0.31
2023-04-04T01:07:13.692Z,-0.38
2023-04-04T01:12:15.631Z,-0.49
2023-04-04T01:17:17.342Z,-0.62
2023-04-04T01:22:20.411Z,-0.61
2023-04-04T01:27:22.647Z,-0.55
2023-04-04T01:32:46.277Z,-0.54
2023-04-04T01:38:06.519Z,-0.66
2023-04-04T01:43:08.726Z,-0.85
2023-04-04T01:48:11.181Z,-0.93
2023-04-04T01:53:13.023Z,-1.04
2023-04-04T01:58:14.542Z,-1.14
2023-04-04T02:03:16.058Z,-1.25
2023-04-04T02:08:17.993Z,-1.29
2023-04-04T02:13:20.048Z,-1.38
2023-04-04T02:18:21.547Z,-1.49
2023-04-04T02:23:23.029Z,-1.54
2023-04-04T02:28:24.564Z,-1.52
2023-04-04T02:33:26.014Z,-1.43
2023-04-04T02:38:28.729Z,-1.40
2023-04-04T02:43:30.398Z,-1.43
2023-04-04T02:48:32.120Z,-1.53
2023-04-04T02:53:33.632Z,-1.63
2023-04-04T02:58:35.173Z,-1.70
2023-04-04T03:03:37.322Z,-1.77
2023-04-04T03:08:39.167Z,-1.82
2023-04-04T03:13:40.784Z,-1.90
2023-04-04T03:18:42.467Z,-1.93
2023-04-04T03:23:44.018Z,-1.84
2023-04-04T03:28:45.542Z,-1.79
2023-04-04T03:33:47.373Z,-1.84
2023-04-04T03:38:49.106Z,-1.92
2023-04-04T03:43:50.946Z,-1.96
2023-04-04T03:48:52.432Z,-2.04
2023-04-04T03:53:54.114Z,-2.11
2023-04-04T03:58:56.531Z,-2.15
2023-04-04T04:03:58.223Z,-2.20
2023-04-04T04:08:59.904Z,-2.11
2023-04-04T04:14:01.453Z,-1.99
2023-04-04T04:19:03.542Z,-1.92
2023-04-04T04:24:06.013Z,-1.87
2023-04-04T04:29:08.089Z,-1.88
2023-04-04T04:34:09.716Z,-1.88
2023-04-04T04:39:11.229Z,-1.91
2023-04-04T04:44:13.442Z,-1.93
2023-04-04T04:49:15.584Z,-1.92
2023-04-04T04:54:17.185Z,-1.90
2023-04-04T04:59:18.683Z,-1.72
2023-04-04T05:04:20.334Z,-1.45
2023-04-04T05:09:21.841Z,-1.28
2023-04-04T05:14:23.669Z,-1.14
2023-04-04T05:19:25.222Z,-1.08
2023-04-04T05:24:27.624Z,-1.01
2023-04-04T05:29:29.181Z,-1.04
2023-04-04T05:34:31.569Z,-1.01
2023-04-04T05:39:33.095Z,-0.92
2023-04-04T05:44:34.879Z,-0.86
2023-04-04T05:49:36.416Z,-0.85
2023-04-04T05:54:37.928Z,-0.66
2023-04-04T05:59:39.518Z,-0.42
2023-04-04T06:04:41.152Z,-0.23
2023-04-04T06:09:43.834Z,-0.31
2023-04-04T06:14:45.472Z,-0.43
2023-04-04T06:19:46.989Z,-0.45
2023-04-04T06:24:48.481Z,-0.43
2023-04-04T06:29:50.253Z,-0.32
2023-04-04T06:34:51.744Z,-0.27
2023-04-04T06:39:53.798Z,-0.27
2023-04-04T06:44:55.537Z,-0.23
2023-04-04T06:49:57.340Z,-0.18
2023-04-04T06:54:58.882Z,-0.08
2023-04-04T07:00:00.838Z,-0.00
2023-04-04T07:05:04.406Z,0.07
2023-04-04T07:10:07.042Z,0.08
2023-04-04T07:15:09.242Z,0.15
2023-04-04T07:20:11.455Z,0.35
2023-04-04T07:25:13.571Z,0.47
2023-04-04T07:30:21.978Z,0.52
2023-04-04T07:35:24.097Z,0.56
2023-04-04T07:40:25.679Z,0.60
2023-04-04T07:45:27.215Z,0.63
2023-04-04T07:50:28.693Z,0.82
2023-04-04T07:55:30.524Z,0.95
2023-04-04T08:00:32.035Z,1.12
2023-04-04T08:05:33.630Z,1.34
2023-04-04T08:10:35.147Z,1.40
2023-04-04T08:15:36.736Z,1.36
2023-04-04T08:20:38.622Z,1.41
2023-04-04T08:25:40.683Z,1.60
2023-04-04T08:30:43.516Z,1.88
2023-04-04T08:35:45.057Z,2.03
2023-04-04T08:40:50.143Z,2.31
2023-04-04T08:45:54.106Z,2.35
2023-04-04T08:50:59.666Z,2.42
2023-04-04T08:56:01.179Z,2.58
2023-04-04T09:01:02.963Z,2.57
2023-04-04T09:06:05.454Z,2.55
2023-04-04T09:11:07.832Z,2.54
2023-04-04T09:16:09.390Z,2.73
2023-04-04T09:21:12.316Z,2.94
2023-04-04T09:26:13.883Z,2.98
2023-04-04T09:31:17.320Z,2.99
2023-04-04T09:36:18.954Z,3.09
2023-04-04T09:41:21.419Z,3.10
2023-04-04T09:46:23.417Z,3.27
2023-04-04T09:51:24.940Z,3.46
2023-04-04T09:56:27.855Z,3.69
2023-04-04T10:01:29.789Z,3.82
2023-04-04T10:06:31.792Z,4.11
2023-04-04T10:11:36.185Z,4.40
2023-04-04T10:16:38.690Z,4.45
2023-04-04T10:21:41.394Z,4.09
2023-04-04T10:26:42.980Z,3.68
2023-04-04T10:31:47.623Z,3.69
2023-04-04T10:36:50.750Z,3.80
2023-04-04T10:41:53.314Z,3.91
2023-04-04T10:46:58.623Z,4.11
2023-04-04T10:52:01.458Z,4.45
2023-04-04T10:57:03.969Z,4.64
2023-04-04T11:02:06.937Z,4.46
2023-04-04T11:07:18.220Z,4.31
2023-04-04T11:12:42.566Z,4.33
2023-04-04T11:17:50.288Z,4.55
2023-04-04T11:23:06.046Z,4.69
2023-04-04T11:28:25.149Z,4.36
2023-04-04T11:33:27.887Z,4.07
2023-04-04T11:38:29.837Z,4.20
2023-04-04T11:43:33.696Z,4.21
2023-04-04T11:48:36.431Z,3.91
2023-04-04T11:53:38.430Z,3.84
2023-04-04T11:58:40.340Z,3.90
2023-04-04T12:03:42.079Z,4.03
2023-04-04T12:08:44.242Z,4.20
2023-04-04T12:13:45.865Z,4.13
2023-04-04T12:18:47.439Z,4.13
2023-04-04T12:23:49.418Z,4.04
2023-04-04T12:28:53.371Z,3.93
2023-04-04T12:33:55.076Z,3.90
2023-04-04T12:39:08.350Z,3.84
2023-04-04T12:44:09.834Z,3.85
2023-04-04T12:49:11.879Z,3.79
2023-04-04T12:54:26.979Z,3.74
2023-04-04T12:59:34.155Z,3.62
2023-04-04T13:04:36.070Z,3.77
2023-04-04T13:09:52.666Z,3.82
2023-04-04T13:14:59.517Z,3.85
2023-04-04T13:20:01.404Z,3.79
2023-04-04T13:25:04.133Z,3.72
2023-04-04T13:30:09.194Z,3.53
2023-04-04T13:35:13.459Z,3.28
2023-04-04T13:40:15.453Z,3.04
2023-04-04T13:45:16.989Z,2.95
2023-04-04T13:50:18.517Z,2.98
2023-04-04T13:55:21.801Z,3.14
2023-04-04T14:00:26.721Z,3.09
2023-04-04T14:05:28.317Z,3.21
2023-04-04T14:10:29.850Z,3.33
2023-04-04T14:15:31.446Z,3.30
2023-04-04T14:20:33.997Z,3.45
2023-04-04T14:25:36.592Z,3.50
2023-04-04T14:30:38.776Z,3.50
2023-04-04T14:35:40.637Z,3.41
2023-04-04T14:40:42.973Z,3.43
2023-04-04T14:45:44.435Z,3.89
2023-04-04T14:50:46.877Z,3.98
2023-04-04T14:55:48.385Z,4.26
2023-04-04T15:00:50.438Z,4.37
2023-04-04T15:05:52.170Z,4.29
2023-04-04T15:10:54.957Z,3.81
2023-04-04T15:15:56.744Z,3.58
2023-04-04T15:20:58.822Z,3.47
2023-04-04T15:26:00.553Z,3.49
2023-04-04T15:31:03.110Z,3.52
2023-04-04T15:36:05.462Z,3.34
2023-04-04T15:41:10.309Z,3.19
2023-04-04T15:46:11.828Z,3.00
2023-04-04T15:51:13.539Z,2.94
2023-04-04T15:56:17.465Z,2.97
2023-04-04T16:01:19.193Z,2.87
2023-04-04T16:06:21.232Z,2.86
2023-04-04T16:11:22.899Z,2.56
2023-04-04T16:16:24.434Z,2.35
2023-04-04T16:21:26.676Z,2.27
2023-04-04T16:26:28.301Z,2.27
2023-04-04T16:31:31.251Z,2.34
2023-04-04T16:36:32.861Z,2.39
2023-04-04T16:41:34.779Z,2.44
2023-04-04T16:46:36.652Z,2.41
2023-04-04T16:51:38.393Z,2.33
2023-04-04T16:56:39.968Z,2.27
2023-04-04T17:01:41.490Z,2.23
2023-04-04T17:06:43.145Z,2.24
2023-04-04T17:11:47.059Z,2.24
2023-04-04T17:16:48.831Z,2.24
2023-04-04T17:21:50.644Z,2.26
2023-04-04T17:26:52.782Z,2.26
2023-04-04T17:31:56.622Z,2.25
2023-04-04T17:36:58.324Z,2.24
2023-04-04T17:41:59.974Z,2.14
2023-04-04T17:47:01.481Z,2.09
2023-04-04T17:52:04.349Z,2.05
2023-04-04T17:57:07.240Z,2.01
2023-04-04T18:02:08.803Z,2.00
2023-04-04T18:07:11.170Z,1.97
2023-04-04T18:12:12.916Z,1.92
2023-04-04T18:17:14.434Z,1.88
2023-04-04T18:22:15.925Z,1.87
2023-04-04T18:27:17.489Z,1.83
2023-04-04T18:32:21.544Z,1.82
2023-04-04T18:37:23.185Z,1.84
2023-04-04T18:42:26.088Z,1.81
2023-04-04T18:47:27.820Z,1.79
2023-04-04T18:52:29.351Z,1.76
2023-04-04T18:57:31.520Z,1.76
2023-04-04T19:02:34.269Z,1.71
2023-04-04T19:07:36.295Z,1.66
2023-04-04T19:12:37.844Z,1.64
2023-04-04T19:17:40.093Z,1.61
2023-04-04T19:22:41.931Z,1.55
2023-04-04T19:27:43.462Z,1.50
2023-04-04T19:32:44.982Z,1.50
2023-04-04T19:37:46.804Z,1.43
2023-04-04T19:42:48.372Z,1.40
2023-04-04T19:47:50.370Z,1.37
2023-04-04T19:52:52.280Z,1.35
2023-04-04T19:57:53.746Z,1.30
2023-04-04T20:02:58.097Z,1.22
2023-04-04T20:08:02.776Z,1.16
2023-04-04T20:13:06.774Z,1.13
2023-04-04T20:18:08.450Z,1.07
2023-04-04T20:23:10.011Z,1.06
2023-04-04T20:28:28.599Z,1.06
2023-04-04T20:33:32.937Z,1.00
2023-04-04T20:38:36.882Z,0.99
2023-04-04T20:43:38.558Z,0.95
2023-04-04T20:48:40.840Z,0.90
2023-04-04T20:53:42.409Z,0.84
2023-04-04T20:58:43.941Z,0.80
2023-04-04T21:03:47.156Z,0.76
2023-04-04T21:08:51.043Z,0.71
2023-04-04T21:13:52.946Z,0.66
2023-04-04T21:18:58.843Z,0.57
2023-04-04T21:24:01.341Z,0.49
2023-04-04T21:29:08.053Z,0.43
2023-04-04T21:34:11.483Z,0.35
2023-04-04T21:39:29.535Z,0.17
2023-04-04T21:44:31.872Z,-0.05
2023-04-04T21:49:33.446Z,-0.09
2023-04-04T21:54:34.923Z,-0.04
2023-04-04T21:59:36.500Z,0.01
2023-04-04T22:04:38.195Z,-0.01
2023-04-04T22:09:43.014Z,-0.06
2023-04-04T22:14:45.826Z,-0.17
2023-04-04T22:19:58.858Z,-0.35
2023-04-04T22:25:07.211Z,-0.46
2023-04-04T22:30:09.399Z,-0.61
2023-04-04T22:35:12.453Z,-0.80
2023-04-04T22:40:14.347Z,-0.87
2023-04-04T22:45:16.930Z,-0.94
2023-04-04T22:50:23.370Z,-1.03
2023-04-04T22:55:26.603Z,-1.11
2023-04-04T23:00:28.348Z,-1.14
2023-04-04T23:05:29.871Z,-1.18
2023-04-04T23:10:31.568Z,-1.24
2023-04-04T23:15:35.749Z,-1.30
2023-04-04T23:20:37.504Z,-1.37
2023-04-04T23:25:39.085Z,-1.43
2023-04-04T23:30:40.882Z,-1.50
2023-04-04T23:35:43.022Z,-1.55
2023-04-04T23:40:44.618Z,-1.60
2023-04-04T23:45:46.189Z,-1.65
2023-04-04T23:50:50.036Z,-1.71
2023-04-04T23:55:51.905Z,-1.79
